Time;durP1;ratioP1;P1;durP2;ratioP2;P2;SDS_P1;SDS_P2;PMS_P1;PMS_P2;Temp;Humidity;BMP_temperature;BMP_pressure;BME280_temperature;BME280_humidity;BME280_pressure;Samples;Min_cycle;Max_cycle;Signal;HPM_P1;HPM_P2
2023/03/22 00:01:31;;;;;;;24.93;20.03;;;;;;;10.37;100.00;100666.75;5098868;28;20415;-82
2023/03/22 00:04:02;;;;;;;27.90;19.37;;;;;;;10.30;100.00;100658.66;5093331;28;20485;-82
2023/03/22 00:06:33;;;;;;;31.00;19.77;;;;;;;10.32;100.00;100658.44;5084647;28;20402;-82
2023/03/22 00:09:04;;;;;;;27.90;20.17;;;;;;;10.35;100.00;100660.75;5110683;28;20465;-83
2023/03/22 00:11:34;;;;;;;27.07;19.03;;;;;;;10.30;100.00;100658.66;5110633;28;20425;-83
2023/03/22 00:14:03;;;;;;;23.17;18.13;;;;;;;10.43;100.00;100658.66;5117529;28;20494;-82
2023/03/22 00:16:33;;;;;;;28.83;17.63;;;;;;;10.40;100.00;100656.38;5105637;28;20513;-82
2023/03/22 00:19:03;;;;;;;26.07;19.63;;;;;;;10.40;100.00;100652.84;5099136;28;20428;-82
2023/03/22 00:21:35;;;;;;;24.00;17.20;;;;;;;10.31;100.00;100654.09;5102299;28;20443;-82
2023/03/22 00:24:05;;;;;;;22.90;16.60;;;;;;;10.27;100.00;100652.81;5103680;28;21013;-83
2023/03/22 00:26:35;;;;;;;23.93;18.70;;;;;;;10.17;100.00;100655.06;5103828;28;20908;-82
2023/03/22 00:29:08;;;;;;;21.47;17.20;;;;;;;9.98;100.00;100648.56;5102091;28;20561;-83
2023/03/22 00:31:37;;;;;;;27.93;17.67;;;;;;;10.07;100.00;100644.63;5102443;28;20520;-82
2023/03/22 00:34:07;;;;;;;29.60;18.07;;;;;;;10.01;100.00;100643.59;5091919;28;20460;-82
2023/03/22 00:36:38;;;;;;;26.30;17.20;;;;;;;9.72;100.00;100637.69;5095148;28;20433;-81
2023/03/22 00:39:07;;;;;;;30.07;18.37;;;;;;;9.95;100.00;100639.00;5101460;28;20455;-82
2023/03/22 00:41:37;;;;;;;25.83;17.70;;;;;;;9.88;100.00;100631.91;5095846;28;20456;-82
2023/03/22 00:44:06;;;;;;;22.40;16.80;;;;;;;9.90;100.00;100627.13;5101805;28;20488;-82
2023/03/22 00:46:36;;;;;;;27.20;17.90;;;;;;;9.78;100.00;100634.97;5102546;28;20402;-82
2023/03/22 00:49:09;;;;;;;22.40;18.20;;;;;;;9.90;100.00;100636.06;5103896;28;20542;-81
2023/03/22 00:51:40;;;;;;;26.73;18.43;;;;;;;9.98;100.00;100629.63;5102878;28;20484;-81
2023/03/22 00:54:10;;;;;;;23.40;18.10;;;;;;;9.90;100.00;100630.66;5103395;28;20438;-83
2023/03/22 00:56:44;;;;;;;21.90;18.05;;;;;;;9.86;100.00;100645.63;5099628;28;20194;-82
2023/03/22 00:59:16;;;;;;;21.42;17.25;;;;;;;9.91;100.00;100635.03;5112380;28;20196;-82
2023/03/22 01:01:48;;;;;;;29.00;17.55;;;;;;;9.79;100.00;100639.38;5102471;28;20579;-82
2023/03/22 01:04:24;;;;;;;26.65;17.75;;;;;;;9.82;100.00;100641.69;5103627;28;20221;-82
2023/03/22 01:07:00;;;;;;;23.70;16.55;;;;;;;9.87;100.00;100635.66;5103935;28;20198;-81
2023/03/22 01:09:32;;;;;;;25.77;19.37;;;;;;;9.68;100.00;100631.88;5105661;28;20213;-83
2023/03/22 01:12:02;;;;;;;25.10;19.00;;;;;;;9.77;100.00;100627.94;5097870;28;20399;-82
2023/03/22 01:14:31;;;;;;;43.80;20.75;;;;;;;9.77;100.00;100622.53;5100990;28;20446;-82
2023/03/22 01:17:00;;;;;;;21.40;16.90;;;;;;;9.80;100.00;100618.56;5101590;28;20201;-81
2023/03/22 01:19:32;;;;;;;24.10;19.88;;;;;;;9.82;100.00;100614.66;5099449;28;20439;-82
2023/03/22 01:22:06;;;;;;;24.33;16.87;;;;;;;9.86;100.00;100613.19;5101179;28;20232;-82
2023/03/22 01:24:37;;;;;;;22.67;16.90;;;;;;;9.95;100.00;100619.25;5099298;28;20463;-82
2023/03/22 01:27:07;;;;;;;23.60;19.57;;;;;;;9.83;100.00;100621.69;5101087;28;20923;-82
2023/03/22 01:29:36;;;;;;;31.33;20.33;;;;;;;9.78;100.00;100605.25;5093914;28;20467;-82
2023/03/22 01:32:06;;;;;;;29.90;20.10;;;;;;;9.66;100.00;100606.91;5109937;28;20436;-81
2023/03/22 01:34:41;;;;;;;25.57;17.80;;;;;;;9.80;100.00;100602.38;5116811;28;20434;-81
2023/03/22 01:37:12;;;;;;;25.90;19.07;;;;;;;9.95;100.00;100597.63;5118024;28;20479;-82
2023/03/22 01:39:45;;;;;;;22.48;18.08;;;;;;;9.91;100.00;100594.50;5112767;28;20438;-83
2023/03/22 01:42:19;;;;;;;21.80;17.13;;;;;;;9.99;100.00;100597.00;5115442;28;20177;-82
2023/03/22 01:45:32;;;;;;;28.13;18.97;;;;;;;9.81;100.00;100580.56;5102101;28;20247;-82
2023/03/22 01:48:06;;;;;;;29.90;18.50;;;;;;;9.77;100.00;100581.16;5100307;28;20454;-83
2023/03/22 01:50:41;;;;;;;28.23;19.10;;;;;;;9.89;100.00;100585.75;5113632;28;20466;-82
2023/03/22 01:53:17;;;;;;;26.60;19.93;;;;;;;9.89;100.00;100588.47;5114509;28;20408;-83
2023/03/22 01:55:48;;;;;;;22.95;17.85;;;;;;;9.78;100.00;100588.25;5110213;28;20453;-82
2023/03/22 01:58:24;;;;;;;25.03;17.90;;;;;;;9.70;100.00;100580.31;5101471;28;20196;-83
2023/03/22 02:01:02;;;;;;;27.10;17.77;;;;;;;9.83;100.00;100583.03;5097320;28;20424;-82
2023/03/22 02:03:58;;;;;;;19.50;15.93;;;;;;;9.84;100.00;100582.00;5080491;28;20554;-81
2023/03/22 02:06:31;;;;;;;24.02;16.65;;;;;;;9.77;100.00;100576.59;5100178;28;20225;-81
2023/03/22 02:09:11;;;;;;;22.30;17.30;;;;;;;9.72;100.00;100570.97;5097789;28;20215;-82
2023/03/22 02:11:44;;;;;;;22.80;15.50;;;;;;;9.82;100.00;100579.53;5111572;28;20438;-81
2023/03/22 02:14:42;;;;;;;23.60;16.60;;;;;;;9.83;100.00;100581.16;5089193;28;20474;-82
2023/03/22 02:17:58;;;;;;;31.23;18.63;;;;;;;9.85;100.00;100573.69;5078067;28;20269;-82
2023/03/22 02:20:54;;;;;;;22.60;19.17;;;;;;;9.85;100.00;100573.69;5100006;28;20201;-83
2023/03/22 02:24:01;;;;;;;26.35;17.92;;;;;;;9.67;100.00;100578.03;5095614;28;20786;-82
2023/03/22 02:27:01;;;;;;;24.92;18.23;;;;;;;9.62;100.00;100567.81;5099197;28;20293;-82
2023/03/22 02:29:43;;;;;;;22.00;17.40;;;;;;;9.71;100.00;100569.31;5082678;28;20292;-82
2023/03/22 02:32:43;;;;;;;26.15;17.08;;;;;;;9.62;100.00;100565.13;5085123;28;20422;-82
2023/03/22 02:35:32;;;;;;;25.23;19.08;;;;;;;9.50;100.00;100570.28;5105735;28;20283;-83
2023/03/22 02:38:41;;;;;;;29.60;18.10;;;;;;;9.64;100.00;100565.75;5099920;28;20199;-82
2023/03/22 02:41:16;;;;;;;21.15;17.63;;;;;;;9.64;100.00;100571.13;5089808;28;20237;-81
2023/03/22 02:43:56;;;;;;;29.57;17.13;;;;;;;9.53;100.00;100563.66;5092511;28;20220;-82
2023/03/22 02:46:33;;;;;;;23.02;17.60;;;;;;;9.45;100.00;100561.09;5103538;28;20924;-82
2023/03/22 02:49:11;;;;;;;23.08;17.23;;;;;;;9.47;100.00;100549.09;5101880;28;20186;-81
2023/03/22 02:51:46;;;;;;;24.33;15.87;;;;;;;9.51;100.00;100560.31;5101920;28;20233;-81
2023/03/22 02:54:22;;;;;;;19.48;15.45;;;;;;;9.48;100.00;100566.97;5098184;28;20540;-81
2023/03/22 02:57:00;;;;;;;21.23;15.63;;;;;;;9.48;100.00;100560.72;5107537;28;20182;-82
2023/03/22 02:59:36;;;;;;;21.38;16.10;;;;;;;9.56;100.00;100552.44;5116484;28;20434;-81
2023/03/22 03:02:08;;;;;;;22.98;15.93;;;;;;;9.47;100.00;100549.09;5108959;28;20186;-82
2023/03/22 03:04:45;;;;;;;24.50;18.55;;;;;;;9.34;100.00;100545.50;5088867;28;20317;-82
2023/03/22 03:07:20;;;;;;;20.93;15.07;;;;;;;9.47;100.00;100542.84;5108929;28;20216;-82
2023/03/22 03:09:54;;;;;;;25.27;17.35;;;;;;;9.51;100.00;100549.50;5103699;28;20435;-82
2023/03/22 03:12:27;;;;;;;20.85;15.02;;;;;;;9.40;100.00;100547.38;5104253;28;20202;-82
2023/03/22 03:15:13;;;;;;;24.85;17.35;;;;;;;9.24;100.00;100542.34;5107902;28;20281;-82
2023/03/22 03:17:57;;;;;;;25.42;16.30;;;;;;;9.26;100.00;100538.41;5125667;28;20206;-82
2023/03/22 03:20:36;;;;;;;21.10;14.57;;;;;;;9.39;100.00;100548.44;5106382;28;20220;-82
2023/03/22 03:23:16;;;;;;;22.70;18.38;;;;;;;9.31;100.00;100549.44;5117043;28;20170;-83
2023/03/22 03:25:56;;;;;;;22.70;16.60;;;;;;;9.23;100.00;100552.31;5116961;28;20156;-81
2023/03/22 03:28:37;;;;;;;25.05;18.13;;;;;;;9.18;100.00;100556.66;5116745;28;20190;-81
2023/03/22 03:31:20;;;;;;;22.20;17.13;;;;;;;9.15;100.00;100561.41;5113909;28;20215;-83
2023/03/22 03:33:58;;;;;;;20.60;15.10;;;;;;;9.23;100.00;100567.69;5115768;28;20243;-83
2023/03/22 03:36:38;;;;;;;25.35;19.00;;;;;;;9.27;100.00;100566.25;5105802;28;20198;-82
2023/03/22 03:39:12;;;;;;;23.45;18.50;;;;;;;9.34;100.00;100564.41;5105336;28;20193;-83
2023/03/22 03:41:44;;;;;;;22.83;18.88;;;;;;;9.43;100.00;100565.91;5108459;28;20200;-82
2023/03/22 03:44:19;;;;;;;24.77;18.33;;;;;;;9.43;100.00;100564.03;5115132;28;20269;-81
2023/03/22 03:46:48;;;;;;;23.73;18.60;;;;;;;9.49;100.00;100556.97;5116163;28;20271;-82
2023/03/22 03:49:25;;;;;;;29.63;18.30;;;;;;;9.47;100.00;100556.34;5107958;28;20198;-83
2023/03/22 03:51:56;;;;;;;28.53;19.03;;;;;;;9.38;100.00;100552.16;5107533;28;20216;-82
2023/03/22 03:54:25;;;;;;;24.40;18.27;;;;;;;9.37;100.00;100554.03;5107068;28;20463;-82
2023/03/22 03:56:55;;;;;;;24.42;19.63;;;;;;;9.42;100.00;100561.53;5107674;28;20670;-82
2023/03/22 03:59:26;;;;;;;27.97;17.80;;;;;;;9.51;100.00;100552.19;5107695;28;20170;-82
2023/03/22 04:01:57;;;;;;;20.40;16.38;;;;;;;9.70;100.00;100554.13;5107372;28;21009;-81
2023/03/22 04:04:30;;;;;;;19.05;15.80;;;;;;;9.75;100.00;100551.63;5103730;28;20221;-82
2023/03/22 04:07:04;;;;;;;24.67;17.52;;;;;;;9.77;100.00;100548.75;5093227;28;20198;-82
2023/03/22 04:09:39;;;;;;;27.00;18.47;;;;;;;9.51;100.00;100544.94;5095168;28;20191;-83
2023/03/22 04:12:23;;;;;;;22.27;16.93;;;;;;;9.62;100.00;100548.91;5096437;28;20455;-83
2023/03/22 04:15:14;;;;;;;23.70;17.10;;;;;;;9.71;100.00;100555.78;5102323;28;20531;-82
2023/03/22 04:17:52;;;;;;;20.73;15.30;;;;;;;9.83;100.00;100553.31;5091481;28;20433;-82
2023/03/22 04:20:25;;;;;;;23.13;15.37;;;;;;;9.87;100.00;100559.97;5106958;28;20196;-82
2023/03/22 04:22:56;;;;;;;23.30;16.33;;;;;;;9.74;100.00;100562.63;5107489;28;20446;-82
2023/03/22 04:25:29;;;;;;;18.27;15.10;;;;;;;9.78;100.00;100553.91;5100654;28;20454;-82
2023/03/22 04:28:04;;;;;;;19.77;15.93;;;;;;;9.84;100.00;100558.50;5094054;28;20914;-82
2023/03/22 04:30:39;;;;;;;22.83;16.17;;;;;;;9.79;100.00;100552.88;5118211;28;20198;-82
2023/03/22 04:33:46;;;;;;;19.27;16.17;;;;;;;9.79;100.00;100554.75;5091997;28;20447;-82
2023/03/22 04:36:30;;;;;;;22.80;16.40;;;;;;;9.82;100.00;100549.78;5111330;28;20439;-82
2023/03/22 04:39:14;;;;;;;23.77;16.25;;;;;;;9.86;100.00;100542.94;5112486;28;20452;-82
2023/03/22 04:41:50;;;;;;;22.42;16.25;;;;;;;9.60;100.00;100543.72;5103493;28;20184;-82
2023/03/22 04:44:21;;;;;;;22.60;16.60;;;;;;;9.56;100.00;100544.31;5106524;28;20231;-83
2023/03/22 04:46:54;;;;;;;22.90;17.23;;;;;;;9.48;100.00;100539.13;5105813;28;20455;-83
2023/03/22 04:49:25;;;;;;;15.83;13.23;;;;;;;9.56;100.00;100547.84;5100033;28;20466;-81
2023/03/22 04:52:00;;;;;;;20.58;13.90;;;;;;;9.53;100.00;100539.34;5094251;28;20755;-83
2023/03/22 04:54:37;;;;;;;23.05;15.32;;;;;;;9.51;100.00;100538.69;5099650;28;20300;-82
2023/03/22 04:57:08;;;;;;;20.57;14.30;;;;;;;9.48;100.00;100542.66;5094202;28;20246;-82
2023/03/22 04:59:42;;;;;;;20.20;14.95;;;;;;;9.52;100.00;100532.25;5116511;28;20532;-82
2023/03/22 05:02:16;;;;;;;17.80;13.98;;;;;;;9.49;100.00;100535.34;5102992;28;20222;-82
2023/03/22 05:04:48;;;;;;;23.02;13.95;;;;;;;9.51;100.00;100525.19;5082729;28;20234;-82
2023/03/22 05:07:36;;;;;;;20.33;15.30;;;;;;;9.37;100.00;100523.50;5101261;28;20186;-81
2023/03/22 05:10:08;;;;;;;22.50;15.15;;;;;;;9.56;100.00;100515.44;5115211;28;20237;-83
2023/03/22 05:12:38;;;;;;;18.08;13.35;;;;;;;9.48;100.00;100517.50;5113677;28;20227;-82
2023/03/22 05:15:18;;;;;;;19.77;13.85;;;;;;;9.58;100.00;100517.94;5106906;28;20217;-83
2023/03/22 05:17:54;;;;;;;22.73;14.77;;;;;;;9.66;100.00;100520.44;5091591;28;20191;-82
2023/03/22 05:20:25;;;;;;;16.13;14.27;;;;;;;9.66;100.00;100520.44;5097859;28;20189;-81
2023/03/22 05:23:13;;;;;;;19.10;13.18;;;;;;;9.63;100.00;100515.47;5097140;28;20217;-81
2023/03/22 05:25:45;;;;;;;17.20;14.03;;;;;;;9.72;100.00;100524.22;5104299;28;20217;-83
2023/03/22 05:28:23;;;;;;;19.95;13.85;;;;;;;9.71;100.00;100517.97;5102588;28;20430;-82
2023/03/22 05:30:58;;;;;;;21.17;15.20;;;;;;;9.73;100.00;100523.97;5098233;28;20205;-82
2023/03/22 05:33:35;;;;;;;19.15;14.02;;;;;;;9.66;100.00;100515.03;5101643;28;20235;-82
2023/03/22 05:36:06;;;;;;;20.20;15.02;;;;;;;9.76;100.00;100520.06;5082235;28;20190;-81
2023/03/22 05:38:46;;;;;;;24.52;16.00;;;;;;;9.74;100.00;100517.53;5085792;28;20198;-82
2023/03/22 05:41:20;;;;;;;26.25;17.08;;;;;;;9.74;100.00;100527.50;5105753;28;20218;-83
2023/03/22 05:43:50;;;;;;;18.33;14.60;;;;;;;9.69;100.00;100517.31;5114928;28;20220;-83
2023/03/22 05:46:20;;;;;;;16.63;13.55;;;;;;;9.54;100.00;100512.09;5086714;28;20198;-81
2023/03/22 05:49:10;;;;;;;24.48;14.90;;;;;;;9.60;100.00;100515.84;5087716;28;20353;-82
2023/03/22 05:51:42;;;;;;;18.30;14.30;;;;;;;9.54;100.00;100517.50;5096460;28;20206;-82
2023/03/22 05:54:14;;;;;;;19.23;14.68;;;;;;;9.58;100.00;100512.53;5082685;28;20471;-82
2023/03/22 05:56:50;;;;;;;25.17;16.30;;;;;;;9.49;100.00;100513.75;5099295;28;20254;-83
2023/03/22 05:59:22;;;;;;;16.67;13.77;;;;;;;9.58;100.00;100513.34;5100622;28;20200;-82
2023/03/22 06:01:52;;;;;;;22.95;14.63;;;;;;;9.67;100.00;100511.31;5111521;28;20804;-83
2023/03/22 06:04:25;;;;;;;18.70;13.90;;;;;;;9.56;100.00;100510.03;5091679;28;20226;-83
2023/03/22 06:07:02;;;;;;;16.85;14.05;;;;;;;9.75;100.00;100513.81;5100617;28;20209;-83
2023/03/22 06:09:41;;;;;;;23.17;15.23;;;;;;;9.71;100.00;100512.56;5099474;28;20219;-83
2023/03/22 06:12:17;;;;;;;21.17;13.57;;;;;;;9.84;100.00;100509.03;5099066;28;20210;-82
2023/03/22 06:14:51;;;;;;;16.13;11.85;;;;;;;9.72;100.00;100508.81;5104858;28;20241;-83
2023/03/22 06:17:37;;;;;;;17.85;14.05;;;;;;;9.64;100.00;100516.28;5110303;28;20211;-82
2023/03/22 06:20:14;;;;;;;17.63;13.73;;;;;;;9.71;100.00;100506.31;5113343;28;20197;-82
2023/03/22 06:22:51;;;;;;;19.88;14.70;;;;;;;9.73;100.00;100509.66;5112517;28;20201;-83
2023/03/22 06:25:21;;;;;;;19.40;13.40;;;;;;;9.88;100.00;100507.56;5111135;28;20221;-84
2023/03/22 06:27:51;;;;;;;17.92;12.70;;;;;;;9.98;99.09;100506.13;5104529;28;20754;-82
2023/03/22 06:30:22;;;;;;;18.08;12.90;;;;;;;10.01;98.32;100511.13;5102597;28;20194;-83
2023/03/22 06:33:09;;;;;;;17.20;12.82;;;;;;;9.88;98.57;100507.56;5100033;28;20225;-82
2023/03/22 06:35:43;;;;;;;19.47;13.70;;;;;;;10.04;99.15;100508.00;5118575;28;20240;-80
2023/03/22 06:38:18;;;;;;;16.90;12.70;;;;;;;9.98;98.05;100508.84;5096202;28;20455;-81
2023/03/22 06:40:48;;;;;;;17.42;14.57;;;;;;;10.00;98.08;100516.75;5097868;28;20201;-80
2023/03/22 06:43:17;;;;;;;18.23;14.02;;;;;;;10.21;96.98;100518.44;5082952;28;20190;-83
2023/03/22 06:45:50;;;;;;;16.47;13.17;;;;;;;10.29;97.12;100521.75;5092784;28;20205;-82
2023/03/22 06:48:26;;;;;;;21.80;14.35;;;;;;;10.35;95.49;100529.03;5093671;28;20443;-84
2023/03/22 06:51:03;;;;;;;23.87;14.30;;;;;;;10.30;95.65;100528.00;5094010;28;20201;-82
2023/03/22 06:53:37;;;;;;;17.77;14.37;;;;;;;10.40;96.00;100528.41;5105053;28;20470;-83
2023/03/22 06:56:08;;;;;;;18.47;13.87;;;;;;;10.50;95.39;100523.41;5104976;28;20455;-83
2023/03/22 06:58:47;;;;;;;21.80;15.20;;;;;;;10.46;94.69;100524.84;5111552;28;20437;-83
2023/03/22 07:01:17;;;;;;;21.03;13.60;;;;;;;10.62;93.75;100529.00;5105246;28;20452;-82
2023/03/22 07:03:46;;;;;;;18.73;14.23;;;;;;;10.43;94.29;100526.13;5108046;28;20781;-82
2023/03/22 07:06:19;;;;;;;17.87;14.20;;;;;;;10.62;94.05;100523.56;5090631;28;20421;-82
2023/03/22 07:08:53;;;;;;;19.13;14.80;;;;;;;10.70;93.20;100528.75;5093262;28;20452;-83
2023/03/22 07:11:30;;;;;;;18.37;13.53;;;;;;;10.90;92.48;100524.13;5100609;28;20973;-82
2023/03/22 07:14:03;;;;;;;22.00;15.93;;;;;;;10.86;91.94;100522.88;5092163;28;20455;-82
2023/03/22 07:16:52;;;;;;;25.17;15.93;;;;;;;10.85;92.05;100524.75;5099564;28;20570;-83
2023/03/22 07:19:23;;;;;;;20.30;14.50;;;;;;;10.74;92.43;100532.72;5108158;28;20450;-83
2023/03/22 07:21:54;;;;;;;19.90;15.33;;;;;;;11.04;91.65;100524.91;5124001;28;20445;-83
2023/03/22 07:24:24;;;;;;;20.03;14.40;;;;;;;11.04;90.84;100524.91;5110619;28;20461;-82
2023/03/22 07:26:53;;;;;;;19.37;14.77;;;;;;;11.09;89.90;100522.38;5117643;28;20479;-83
2023/03/22 07:29:30;;;;;;;19.60;14.70;;;;;;;11.27;89.79;100514.41;5112235;28;20437;-82
2023/03/22 07:32:00;;;;;;;20.33;13.23;;;;;;;11.24;89.92;100522.94;5102476;28;20481;-81
2023/03/22 07:34:40;;;;;;;21.67;12.80;;;;;;;11.31;89.49;100526.47;5102290;28;20462;-81
2023/03/22 07:37:20;;;;;;;20.97;13.30;;;;;;;11.44;88.43;100515.56;5106414;28;20395;-82
2023/03/22 07:39:49;;;;;;;19.50;14.13;;;;;;;11.50;87.64;100513.88;5129177;28;20461;-81
2023/03/22 07:42:19;;;;;;;22.37;16.20;;;;;;;11.75;86.66;100512.91;5105894;28;20841;-81
2023/03/22 07:45:07;;;;;;;19.10;14.70;;;;;;;11.76;87.22;100509.13;5096397;28;20419;-82
2023/03/22 07:47:43;;;;;;;22.47;15.27;;;;;;;11.63;86.99;100503.78;5103920;28;20503;-82
2023/03/22 07:50:34;;;;;;;19.10;12.93;;;;;;;11.49;86.39;100491.34;5101644;28;20423;-83
2023/03/22 07:53:23;;;;;;;20.70;12.53;;;;;;;11.61;86.47;100496.91;5095579;28;20460;-82
2023/03/22 07:55:59;;;;;;;18.23;11.47;;;;;;;11.80;85.73;100497.88;5103457;28;20441;-82
2023/03/22 07:58:34;;;;;;;19.53;13.27;;;;;;;11.95;85.34;100498.38;5100884;28;20411;-83
2023/03/22 08:01:11;;;;;;;17.27;12.97;;;;;;;11.94;84.66;100499.41;5105225;28;20539;-82
2023/03/22 08:04:08;;;;;;;18.30;12.97;;;;;;;11.94;84.87;100494.84;5122970;28;20467;-83
2023/03/22 08:06:58;;;;;;;18.70;13.50;;;;;;;12.16;83.75;100495.25;5122063;28;20856;-82
2023/03/22 08:09:37;;;;;;;17.10;13.87;;;;;;;12.31;82.76;100484.91;5122446;28;20434;-83
2023/03/22 08:12:14;;;;;;;18.00;13.23;;;;;;;12.45;82.14;100491.03;5117940;28;20434;-81
2023/03/22 08:14:49;;;;;;;16.43;12.37;;;;;;;12.85;81.79;100484.13;5105737;28;20457;-83
2023/03/22 08:17:24;;;;;;;16.73;13.80;;;;;;;12.80;81.09;100489.41;5105305;28;20870;-83
2023/03/22 08:19:57;;;;;;;18.10;12.37;;;;;;;12.97;80.23;100500.50;5105017;28;20774;-85
2023/03/22 08:22:45;;;;;;;18.87;12.70;;;;;;;13.16;78.23;100499.44;5103648;28;20445;-83
2023/03/22 08:25:56;;;;;;;15.77;12.80;;;;;;;13.33;78.74;100503.19;5104530;28;20503;-85
2023/03/22 08:28:28;;;;;;;15.07;11.53;;;;;;;13.36;77.12;100491.03;5103715;28;20719;-84
2023/03/22 08:31:17;;;;;;;17.20;13.67;;;;;;;13.47;77.22;100490.22;5103551;28;20434;-83
2023/03/22 08:33:57;;;;;;;16.13;12.87;;;;;;;13.21;77.51;100485.19;5103780;28;20469;-84
2023/03/22 08:36:43;;;;;;;19.53;14.17;;;;;;;13.11;77.01;100485.72;5104969;28;20388;-84
2023/03/22 08:39:22;;;;;;;18.60;12.73;;;;;;;13.24;77.53;100477.38;5104371;28;20499;-84
2023/03/22 08:42:24;;;;;;;18.63;13.93;;;;;;;13.60;76.65;100472.91;5106965;28;20464;-85
2023/03/22 08:44:59;;;;;;;16.40;10.97;;;;;;;13.47;76.04;100480.19;5106894;28;20466;-87
2023/03/22 08:47:31;;;;;;;13.60;12.17;;;;;;;13.63;75.83;100478.72;5114299;28;20403;-85
2023/03/22 08:50:04;;;;;;;17.23;12.60;;;;;;;13.86;75.76;100475.22;5113741;28;20410;-86
2023/03/22 08:52:48;;;;;;;18.50;11.90;;;;;;;13.85;75.29;100474.38;5118200;28;20447;-83
2023/03/22 08:55:28;;;;;;;17.47;13.93;;;;;;;14.02;74.83;100469.09;5110470;28;20434;-84
2023/03/22 08:58:18;;;;;;;18.53;14.90;;;;;;;13.78;74.75;100467.41;5105359;28;20425;-82
2023/03/22 09:01:01;;;;;;;14.40;11.50;;;;;;;13.83;74.52;100459.38;5109976;28;20423;-84
2023/03/22 09:03:41;;;;;;;14.53;11.40;;;;;;;13.80;74.32;100457.94;5110222;28;20437;-83
2023/03/22 09:06:17;;;;;;;18.87;13.30;;;;;;;14.05;73.52;100460.47;5105239;28;20527;-84
2023/03/22 09:08:52;;;;;;;16.33;13.43;;;;;;;14.27;73.19;100450.66;5103575;28;20421;-84
2023/03/22 09:11:25;;;;;;;17.63;12.13;;;;;;;14.16;72.84;100456.91;5104638;28;20476;-83
2023/03/22 09:14:00;;;;;;;15.83;11.50;;;;;;;14.35;72.28;100447.56;5104648;28;20580;-85
2023/03/22 09:16:50;;;;;;;16.53;11.50;;;;;;;14.32;72.19;100447.22;5105159;28;20425;-84
2023/03/22 09:19:31;;;;;;;16.50;11.57;;;;;;;14.50;71.73;100438.13;5112031;28;20435;-84
2023/03/22 09:22:05;;;;;;;17.10;11.53;;;;;;;14.22;72.33;100442.38;5104555;28;20412;-82
2023/03/22 09:24:46;;;;;;;13.63;11.23;;;;;;;14.40;71.90;100437.91;5103911;28;20440;-85
2023/03/22 09:27:21;;;;;;;17.13;11.80;;;;;;;14.74;71.24;100432.41;5104790;28;20417;-84
2023/03/22 09:30:35;;;;;;;13.87;11.37;;;;;;;15.02;69.24;100439.78;5109613;28;20420;-84
2023/03/22 09:33:13;;;;;;;14.90;13.10;;;;;;;14.85;69.10;100433.44;5110658;28;20442;-85
2023/03/22 09:40:07;;;;;;;12.63;10.67;;;;;;;15.06;68.79;100438.22;5086336;28;20416;-85
2023/03/22 09:42:59;;;;;;;14.83;10.70;;;;;;;15.19;68.70;100432.50;5130694;28;20429;-86
2023/03/22 09:50:30;;;;;;;18.80;11.60;;;;;;;15.59;67.65;100434.31;5109297;28;20503;-84
2023/03/22 09:53:09;;;;;;;17.07;10.80;;;;;;;15.65;66.83;100428.72;5084732;28;20425;-85
2023/03/22 09:55:52;;;;;;;12.03;10.40;;;;;;;15.67;65.94;100414.00;5120450;28;20445;-85
2023/03/22 09:58:39;;;;;;;14.93;10.40;;;;;;;15.78;65.78;100422.09;5101343;28;20438;-85
2023/03/22 10:01:53;;;;;;;15.50;11.10;;;;;;;15.90;66.01;100422.84;5093602;28;20557;-85
2023/03/22 10:05:06;;;;;;;13.60;11.57;;;;;;;16.31;64.95;100409.84;5105123;28;20415;-85
2023/03/22 10:08:28;;;;;;;15.30;11.47;;;;;;;16.26;64.18;100407.03;5080004;28;20477;-85
2023/03/22 10:11:19;;;;;;;12.17;9.73;;;;;;;16.42;64.54;100417.06;5115817;28;20419;-84
2023/03/22 10:14:11;;;;;;;11.60;9.53;;;;;;;16.45;63.09;100408.38;5108293;28;20901;-84
2023/03/22 10:16:50;;;;;;;14.97;11.57;;;;;;;16.98;62.53;100404.16;5124795;28;20417;-86
2023/03/22 10:19:36;;;;;;;14.67;10.57;;;;;;;17.18;61.21;100398.94;5106714;28;20473;-84
2023/03/22 10:22:37;;;;;;;12.50;9.83;;;;;;;17.35;59.76;100397.72;5088792;28;20505;-85
2023/03/22 10:25:24;;;;;;;12.03;8.60;;;;;;;17.37;59.30;100400.22;5089562;28;20980;-84
2023/03/22 10:27:56;;;;;;;14.00;10.50;;;;;;;17.01;59.66;100392.72;5087040;28;20452;-85
2023/03/22 10:33:49;;;;;;;14.33;9.77;;;;;;;16.55;60.97;100373.03;5106654;28;20432;-84
2023/03/22 10:36:29;;;;;;;13.57;9.37;;;;;;;16.81;60.22;100360.50;5109643;28;20396;-84
2023/03/22 10:39:15;;;;;;;11.23;9.17;;;;;;;17.30;58.97;100361.28;5100585;28;20475;-85
2023/03/22 10:42:00;;;;;;;15.40;8.17;;;;;;;17.12;59.41;100353.47;5090305;28;20493;-85
2023/03/22 10:44:54;;;;;;;9.37;8.40;;;;;;;17.19;58.57;100352.16;5103726;28;20437;-85
2023/03/22 10:50:33;;;;;;;12.60;9.67;;;;;;;17.32;58.51;100350.94;5095976;28;20424;-84
2023/03/22 10:53:13;;;;;;;10.80;8.73;;;;;;;17.11;58.39;100343.63;5102860;28;20444;-85
2023/03/22 10:55:58;;;;;;;13.07;8.90;;;;;;;17.37;57.89;100338.13;5111821;28;20490;-84
2023/03/22 10:58:41;;;;;;;10.80;8.20;;;;;;;17.45;58.34;100338.72;5114539;28;20414;-85
2023/03/22 11:01:24;;;;;;;10.13;8.43;;;;;;;17.31;57.41;100341.91;5111002;28;20438;-83
2023/03/22 11:04:00;;;;;;;11.87;8.67;;;;;;;17.10;57.40;100345.50;5108051;28;20427;-85
2023/03/22 11:06:51;;;;;;;9.77;8.77;;;;;;;17.21;56.98;100349.19;5102147;28;20420;-85
2023/03/22 11:09:29;;;;;;;10.87;8.37;;;;;;;17.16;56.00;100330.81;5103820;28;20432;-85
2023/03/22 11:12:04;;;;;;;11.00;7.80;;;;;;;17.02;57.05;100345.16;5104506;28;20427;-85
2023/03/22 11:14:42;;;;;;;9.00;6.87;;;;;;;17.05;57.63;100339.16;5114153;28;20480;-84
2023/03/22 11:17:24;;;;;;;11.47;8.33;;;;;;;17.18;57.59;100325.94;5103926;28;20449;-85
2023/03/22 11:20:09;;;;;;;8.60;7.10;;;;;;;17.36;55.30;100327.44;5090056;28;20443;-85
2023/03/22 11:22:59;;;;;;;6.20;5.47;;;;;;;17.41;55.20;100322.03;5093122;28;20450;-85
2023/03/22 11:26:12;;;;;;;8.07;6.00;;;;;;;17.24;55.62;100334.97;5100669;28;20436;-85
2023/03/22 11:28:46;;;;;;;7.77;7.00;;;;;;;16.95;55.67;100337.97;5103085;28;20429;-85
2023/03/22 11:31:18;;;;;;;9.03;7.13;;;;;;;16.83;56.60;100342.78;5104960;28;20448;-84
2023/03/22 11:33:56;;;;;;;8.77;6.50;;;;;;;16.98;56.14;100322.16;5099586;28;20465;-84
2023/03/22 11:36:27;;;;;;;8.63;7.57;;;;;;;16.98;55.49;100328.47;5086039;28;20500;-84
2023/03/22 11:39:07;;;;;;;6.83;5.20;;;;;;;17.17;55.00;100329.75;5079571;28;20455;-85
2023/03/22 11:41:45;;;;;;;6.43;5.10;;;;;;;17.12;53.73;100323.41;5111559;28;20450;-86
2023/03/22 11:44:19;;;;;;;6.63;5.37;;;;;;;17.07;54.30;100326.09;5117436;28;20443;-86
2023/03/22 11:46:58;;;;;;;8.00;4.70;;;;;;;17.62;54.60;100323.06;5101712;28;20399;-85
2023/03/22 11:49:39;;;;;;;8.40;4.93;;;;;;;17.72;52.82;100318.44;5098712;28;20520;-84
2023/03/22 11:52:16;;;;;;;6.67;5.37;;;;;;;17.48;52.62;100314.41;5099196;28;20429;-85
2023/03/22 11:54:48;;;;;;;7.70;4.87;;;;;;;17.62;52.26;100306.63;5104500;28;20456;-84
2023/03/22 11:57:21;;;;;;;6.07;5.47;;;;;;;17.68;52.28;100303.66;5089573;28;20496;-83
2023/03/22 12:00:00;;;;;;;8.17;4.40;;;;;;;17.48;51.94;100294.44;5103065;28;20470;-85
2023/03/22 12:02:36;;;;;;;4.53;4.07;;;;;;;17.45;52.13;100294.97;5108294;28;20414;-85
2023/03/22 12:05:18;;;;;;;6.07;4.27;;;;;;;17.69;51.48;100291.63;5103192;28;20446;-84
2023/03/22 12:07:52;;;;;;;7.87;5.13;;;;;;;17.69;51.14;100286.16;5108198;28;20443;-84
2023/03/22 12:10:28;;;;;;;6.10;5.07;;;;;;;17.44;52.01;100283.19;5107455;28;20701;-84
2023/03/22 12:13:02;;;;;;;6.97;4.57;;;;;;;17.87;51.20;100278.59;5119714;28;20970;-84
2023/03/22 12:15:38;;;;;;;9.30;3.77;;;;;;;17.79;51.36;100277.19;5116154;28;20460;-84
2023/03/22 12:18:16;;;;;;;6.10;5.10;;;;;;;17.84;51.80;100288.16;5102162;28;20420;-83